sensor_id;sensor_type;location;lat;lon;timestamp;temperature;humidity
37410;DHT22;23275;48.914;12.566;2022-12-11T00:02:18;0.10;99.90
37410;DHT22;23275;48.914;12.566;2022-12-11T00:04:44;0.10;99.90
37410;DHT22;23275;48.914;12.566;2022-12-11T00:07:09;0.10;99.90
37410;DHT22;23275;48.914;12.566;2022-12-11T00:09:35;0.10;99.90
37410;DHT22;23275;48.914;12.566;2022-12-11T00:12:00;0.10;99.90
37410;DHT22;23275;48.914;12.566;2022-12-11T00:14:27;0.10;99.90
37410;DHT22;23275;48.914;12.566;2022-12-11T00:16:53;0.00;99.90
37410;DHT22;23275;48.914;12.566;2022-12-11T00:19:19;0.00;99.90
37410;DHT22;23275;48.914;12.566;2022-12-11T00:21:44;0.00;99.90
37410;DHT22;23275;48.914;12.566;2022-12-11T00:24:10;0.00;99.90
37410;DHT22;23275;48.914;12.566;2022-12-11T00:26:35;0.00;99.90
37410;DHT22;23275;48.914;12.566;2022-12-11T00:29:01;0.00;99.90
37410;DHT22;23275;48.914;12.566;2022-12-11T00:31:27;-0.10;99.90
37410;DHT22;23275;48.914;12.566;2022-12-11T00:33:52;-0.10;99.90
37410;DHT22;23275;48.914;12.566;2022-12-11T00:36:23;-0.10;99.90
37410;DHT22;23275;48.914;12.566;2022-12-11T00:38:49;-0.10;99.90
37410;DHT22;23275;48.914;12.566;2022-12-11T00:41:15;-0.10;99.90
37410;DHT22;23275;48.914;12.566;2022-12-11T00:43:41;-0.10;99.90
37410;DHT22;23275;48.914;12.566;2022-12-11T00:46:07;-0.10;99.90
37410;DHT22;23275;48.914;12.566;2022-12-11T00:48:33;-0.10;99.90
37410;DHT22;23275;48.914;12.566;2022-12-11T00:50:58;-0.10;99.90
37410;DHT22;23275;48.914;12.566;2022-12-11T00:53:24;-0.10;99.90
37410;DHT22;23275;48.914;12.566;2022-12-11T00:55:50;-0.10;99.90
37410;DHT22;23275;48.914;12.566;2022-12-11T00:58:16;-0.10;99.90
37410;DHT22;23275;48.914;12.566;2022-12-11T01:00:42;-0.20;99.90
37410;DHT22;23275;48.914;12.566;2022-12-11T01:03:08;-0.20;99.90
37410;DHT22;23275;48.914;12.566;2022-12-11T01:05:33;-0.20;99.90
37410;DHT22;23275;48.914;12.566;2022-12-11T01:07:59;-0.20;99.90
37410;DHT22;23275;48.914;12.566;2022-12-11T01:10:25;-0.10;99.90
37410;DHT22;23275;48.914;12.566;2022-12-11T01:12:54;-0.10;99.90
37410;DHT22;23275;48.914;12.566;2022-12-11T01:15:22;-0.10;99.90
37410;DHT22;23275;48.914;12.566;2022-12-11T01:17:49;-0.10;99.90
37410;DHT22;23275;48.914;12.566;2022-12-11T01:20:15;-0.20;99.90
37410;DHT22;23275;48.914;12.566;2022-12-11T01:22:41;-0.20;99.90
37410;DHT22;23275;48.914;12.566;2022-12-11T01:25:07;-0.20;99.90
37410;DHT22;23275;48.914;12.566;2022-12-11T01:27:34;-0.20;99.90
37410;DHT22;23275;48.914;12.566;2022-12-11T01:29:59;-0.20;99.90
37410;DHT22;23275;48.914;12.566;2022-12-11T01:32:27;-0.20;99.90
37410;DHT22;23275;48.914;12.566;2022-12-11T01:34:53;-0.20;99.90
37410;DHT22;23275;48.914;12.566;2022-12-11T01:37:18;-0.20;99.90
37410;DHT22;23275;48.914;12.566;2022-12-11T01:39:44;-0.30;99.90
37410;DHT22;23275;48.914;12.566;2022-12-11T01:42:16;-0.30;99.90
37410;DHT22;23275;48.914;12.566;2022-12-11T01:47:08;-0.30;99.90
37410;DHT22;23275;48.914;12.566;2022-12-11T01:49:33;-0.30;99.90
37410;DHT22;23275;48.914;12.566;2022-12-11T01:54:29;-0.30;99.90
37410;DHT22;23275;48.914;12.566;2022-12-11T01:57:00;-0.30;99.90
37410;DHT22;23275;48.914;12.566;2022-12-11T01:59:26;-0.30;99.90
37410;DHT22;23275;48.914;12.566;2022-12-11T02:01:57;-0.30;99.90
37410;DHT22;23275;48.914;12.566;2022-12-11T02:04:24;-0.30;99.90
37410;DHT22;23275;48.914;12.566;2022-12-11T02:06:51;-0.40;99.90
37410;DHT22;23275;48.914;12.566;2022-12-11T02:09:28;-0.40;99.90
37410;DHT22;23275;48.914;12.566;2022-12-11T02:17:10;-0.50;99.90
37410;DHT22;23275;48.914;12.566;2022-12-11T02:27:52;-0.50;99.90
37410;DHT22;23275;48.914;12.566;2022-12-11T02:30:21;-0.50;99.90
37410;DHT22;23275;48.914;12.566;2022-12-11T02:32:54;-0.50;99.90
37410;DHT22;23275;48.914;12.566;2022-12-11T02:35:24;-0.50;99.90
37410;DHT22;23275;48.914;12.566;2022-12-11T02:37:55;-0.50;99.90
37410;DHT22;23275;48.914;12.566;2022-12-11T02:40:24;-0.50;99.90
37410;DHT22;23275;48.914;12.566;2022-12-11T02:42:51;-0.40;99.90
37410;DHT22;23275;48.914;12.566;2022-12-11T02:45:18;-0.50;99.90
37410;DHT22;23275;48.914;12.566;2022-12-11T02:47:47;-0.40;99.90
37410;DHT22;23275;48.914;12.566;2022-12-11T02:50:17;-0.40;99.90
37410;DHT22;23275;48.914;12.566;2022-12-11T02:52:45;-0.40;99.90
37410;DHT22;23275;48.914;12.566;2022-12-11T02:55:14;-0.40;99.90
37410;DHT22;23275;48.914;12.566;2022-12-11T02:57:47;-0.40;99.90
37410;DHT22;23275;48.914;12.566;2022-12-11T03:00:14;-0.50;99.90
37410;DHT22;23275;48.914;12.566;2022-12-11T03:02:41;-0.50;99.90
37410;DHT22;23275;48.914;12.566;2022-12-11T03:05:08;-0.40;99.90
37410;DHT22;23275;48.914;12.566;2022-12-11T03:07:37;-0.40;99.90
37410;DHT22;23275;48.914;12.566;2022-12-11T03:10:05;-0.40;99.90
37410;DHT22;23275;48.914;12.566;2022-12-11T03:12:34;-0.50;99.90
37410;DHT22;23275;48.914;12.566;2022-12-11T03:15:04;-0.50;99.90
37410;DHT22;23275;48.914;12.566;2022-12-11T03:20:33;-0.50;99.90
37410;DHT22;23275;48.914;12.566;2022-12-11T03:26:07;-0.60;99.90
37410;DHT22;23275;48.914;12.566;2022-12-11T03:28:54;-0.60;99.90
37410;DHT22;23275;48.914;12.566;2022-12-11T03:33:58;-0.70;99.90
37410;DHT22;23275;48.914;12.566;2022-12-11T03:36:30;-0.70;99.90
37410;DHT22;23275;48.914;12.566;2022-12-11T03:39:18;-0.70;99.90
37410;DHT22;23275;48.914;12.566;2022-12-11T03:41:45;-0.70;99.90
37410;DHT22;23275;48.914;12.566;2022-12-11T03:44:13;-0.70;99.90
37410;DHT22;23275;48.914;12.566;2022-12-11T03:46:40;-0.70;99.90
37410;DHT22;23275;48.914;12.566;2022-12-11T03:49:15;-0.70;99.90
37410;DHT22;23275;48.914;12.566;2022-12-11T03:51:43;-0.70;99.90
37410;DHT22;23275;48.914;12.566;2022-12-11T03:54:10;-0.80;99.90
37410;DHT22;23275;48.914;12.566;2022-12-11T03:56:37;-0.80;99.90
37410;DHT22;23275;48.914;12.566;2022-12-11T03:59:04;-0.90;99.90
37410;DHT22;23275;48.914;12.566;2022-12-11T04:01:29;-0.90;99.90
37410;DHT22;23275;48.914;12.566;2022-12-11T04:03:55;-1.00;99.90
37410;DHT22;23275;48.914;12.566;2022-12-11T04:06:20;-1.00;99.90
37410;DHT22;23275;48.914;12.566;2022-12-11T04:08:46;-1.00;99.90
37410;DHT22;23275;48.914;12.566;2022-12-11T04:11:11;-1.10;99.90
37410;DHT22;23275;48.914;12.566;2022-12-11T04:13:56;-1.10;99.90
37410;DHT22;23275;48.914;12.566;2022-12-11T04:16:40;-1.10;99.90
37410;DHT22;23275;48.914;12.566;2022-12-11T04:19:05;-1.20;99.90
37410;DHT22;23275;48.914;12.566;2022-12-11T04:21:49;-1.20;99.90
37410;DHT22;23275;48.914;12.566;2022-12-11T04:24:33;-1.30;99.90
37410;DHT22;23275;48.914;12.566;2022-12-11T04:26:59;-1.30;99.90
37410;DHT22;23275;48.914;12.566;2022-12-11T04:29:25;-1.30;99.90
37410;DHT22;23275;48.914;12.566;2022-12-11T04:31:50;-1.40;99.90
37410;DHT22;23275;48.914;12.566;2022-12-11T04:34:16;-1.40;99.90
37410;DHT22;23275;48.914;12.566;2022-12-11T04:36:42;-1.50;99.90
37410;DHT22;23275;48.914;12.566;2022-12-11T04:39:08;-1.50;99.90
37410;DHT22;23275;48.914;12.566;2022-12-11T04:41:34;-1.50;99.90
37410;DHT22;23275;48.914;12.566;2022-12-11T04:44:00;-1.50;99.90
37410;DHT22;23275;48.914;12.566;2022-12-11T04:46:25;-1.60;99.90
37410;DHT22;23275;48.914;12.566;2022-12-11T04:48:52;-1.60;99.90
37410;DHT22;23275;48.914;12.566;2022-12-11T04:51:18;-1.60;99.90
37410;DHT22;23275;48.914;12.566;2022-12-11T04:53:44;-1.70;99.90
37410;DHT22;23275;48.914;12.566;2022-12-11T04:56:12;-1.80;99.90
37410;DHT22;23275;48.914;12.566;2022-12-11T04:58:38;-1.80;99.90
37410;DHT22;23275;48.914;12.566;2022-12-11T05:01:08;-1.90;99.90
37410;DHT22;23275;48.914;12.566;2022-12-11T05:03:34;-1.90;99.90
37410;DHT22;23275;48.914;12.566;2022-12-11T05:06:00;-1.90;99.90
37410;DHT22;23275;48.914;12.566;2022-12-11T05:08:25;-1.90;99.90
37410;DHT22;23275;48.914;12.566;2022-12-11T05:10:58;-1.90;99.90
37410;DHT22;23275;48.914;12.566;2022-12-11T05:13:26;-1.90;99.90
37410;DHT22;23275;48.914;12.566;2022-12-11T05:15:52;-2.00;99.90
37410;DHT22;23275;48.914;12.566;2022-12-11T05:18:18;-2.00;99.90
37410;DHT22;23275;48.914;12.566;2022-12-11T05:20:43;-2.00;99.90
37410;DHT22;23275;48.914;12.566;2022-12-11T05:23:09;-2.00;99.90
37410;DHT22;23275;48.914;12.566;2022-12-11T05:25:34;-2.00;99.90
37410;DHT22;23275;48.914;12.566;2022-12-11T05:28:00;-2.10;99.90
37410;DHT22;23275;48.914;12.566;2022-12-11T05:30:26;-2.10;99.90
37410;DHT22;23275;48.914;12.566;2022-12-11T05:32:51;-2.10;99.90
37410;DHT22;23275;48.914;12.566;2022-12-11T05:35:17;-2.10;99.90
37410;DHT22;23275;48.914;12.566;2022-12-11T05:37:42;-2.00;99.90
37410;DHT22;23275;48.914;12.566;2022-12-11T05:40:09;-2.00;99.90
37410;DHT22;23275;48.914;12.566;2022-12-11T05:42:37;-2.00;99.90
37410;DHT22;23275;48.914;12.566;2022-12-11T05:45:02;-1.90;99.90
37410;DHT22;23275;48.914;12.566;2022-12-11T05:47:29;-1.90;99.90
37410;DHT22;23275;48.914;12.566;2022-12-11T05:49:55;-1.90;99.90
37410;DHT22;23275;48.914;12.566;2022-12-11T05:52:21;-1.90;99.90
37410;DHT22;23275;48.914;12.566;2022-12-11T05:54:48;-1.90;99.90
37410;DHT22;23275;48.914;12.566;2022-12-11T05:57:15;-1.90;99.90
37410;DHT22;23275;48.914;12.566;2022-12-11T05:59:40;-1.90;99.90
37410;DHT22;23275;48.914;12.566;2022-12-11T06:02:06;-2.00;99.90
37410;DHT22;23275;48.914;12.566;2022-12-11T06:04:32;-2.00;99.90
37410;DHT22;23275;48.914;12.566;2022-12-11T06:06:57;-2.00;99.90
37410;DHT22;23275;48.914;12.566;2022-12-11T06:09:23;-2.00;99.90
37410;DHT22;23275;48.914;12.566;2022-12-11T06:11:48;-2.10;99.90
37410;DHT22;23275;48.914;12.566;2022-12-11T06:14:14;-2.10;99.90
37410;DHT22;23275;48.914;12.566;2022-12-11T06:16:40;-2.10;99.90
37410;DHT22;23275;48.914;12.566;2022-12-11T06:19:05;-2.10;99.90
37410;DHT22;23275;48.914;12.566;2022-12-11T06:21:32;-2.10;99.90
37410;DHT22;23275;48.914;12.566;2022-12-11T06:24:00;-2.10;99.90
37410;DHT22;23275;48.914;12.566;2022-12-11T06:26:26;-2.10;99.90
37410;DHT22;23275;48.914;12.566;2022-12-11T06:28:52;-2.00;99.90
37410;DHT22;23275;48.914;12.566;2022-12-11T06:31:18;-2.00;99.90
37410;DHT22;23275;48.914;12.566;2022-12-11T06:33:44;-2.00;99.90
37410;DHT22;23275;48.914;12.566;2022-12-11T06:36:19;-1.90;99.90
37410;DHT22;23275;48.914;12.566;2022-12-11T06:38:45;-1.80;99.90
37410;DHT22;23275;48.914;12.566;2022-12-11T06:41:12;-1.80;99.90
37410;DHT22;23275;48.914;12.566;2022-12-11T06:43:39;-1.80;99.90
37410;DHT22;23275;48.914;12.566;2022-12-11T06:46:14;-1.70;99.90
37410;DHT22;23275;48.914;12.566;2022-12-11T06:48:40;-1.70;99.90
37410;DHT22;23275;48.914;12.566;2022-12-11T06:51:12;-1.70;99.90
37410;DHT22;23275;48.914;12.566;2022-12-11T06:53:39;-1.60;99.90
37410;DHT22;23275;48.914;12.566;2022-12-11T06:56:12;-1.50;99.90
37410;DHT22;23275;48.914;12.566;2022-12-11T06:58:39;-1.50;99.90
37410;DHT22;23275;48.914;12.566;2022-12-11T07:01:15;-1.50;99.90
37410;DHT22;23275;48.914;12.566;2022-12-11T07:03:41;-1.40;99.90
37410;DHT22;23275;48.914;12.566;2022-12-11T07:06:06;-1.40;99.90
37410;DHT22;23275;48.914;12.566;2022-12-11T07:08:32;-1.40;99.90
37410;DHT22;23275;48.914;12.566;2022-12-11T07:11:09;-1.40;99.90
37410;DHT22;23275;48.914;12.566;2022-12-11T07:13:35;-1.40;99.90
37410;DHT22;23275;48.914;12.566;2022-12-11T07:16:02;-1.40;99.90
37410;DHT22;23275;48.914;12.566;2022-12-11T07:18:29;-1.40;99.90
37410;DHT22;23275;48.914;12.566;2022-12-11T07:20:57;-1.30;99.90
37410;DHT22;23275;48.914;12.566;2022-12-11T07:23:24;-1.30;99.90
37410;DHT22;23275;48.914;12.566;2022-12-11T07:25:50;-1.40;99.90
37410;DHT22;23275;48.914;12.566;2022-12-11T07:28:15;-1.40;99.90
37410;DHT22;23275;48.914;12.566;2022-12-11T07:30:41;-1.30;99.90
37410;DHT22;23275;48.914;12.566;2022-12-11T07:33:06;-1.30;99.90
37410;DHT22;23275;48.914;12.566;2022-12-11T07:35:34;-1.30;99.90
37410;DHT22;23275;48.914;12.566;2022-12-11T07:37:59;-1.30;99.90
37410;DHT22;23275;48.914;12.566;2022-12-11T07:40:25;-1.30;99.90
37410;DHT22;23275;48.914;12.566;2022-12-11T07:42:51;-1.30;99.90
37410;DHT22;23275;48.914;12.566;2022-12-11T07:45:16;-1.30;99.90
37410;DHT22;23275;48.914;12.566;2022-12-11T07:47:42;-1.20;99.90
37410;DHT22;23275;48.914;12.566;2022-12-11T07:50:08;-1.20;99.90
37410;DHT22;23275;48.914;12.566;2022-12-11T07:52:33;-1.10;99.90
37410;DHT22;23275;48.914;12.566;2022-12-11T07:54:59;-1.00;99.90
37410;DHT22;23275;48.914;12.566;2022-12-11T07:57:24;-1.00;99.90
37410;DHT22;23275;48.914;12.566;2022-12-11T07:59:50;-1.00;99.90
37410;DHT22;23275;48.914;12.566;2022-12-11T08:02:16;-0.90;99.90
37410;DHT22;23275;48.914;12.566;2022-12-11T08:04:41;-0.90;99.90
37410;DHT22;23275;48.914;12.566;2022-12-11T08:07:07;-0.90;99.90
37410;DHT22;23275;48.914;12.566;2022-12-11T08:09:32;-0.90;99.90
37410;DHT22;23275;48.914;12.566;2022-12-11T08:11:58;-0.80;99.90
37410;DHT22;23275;48.914;12.566;2022-12-11T08:14:23;-0.70;99.90
37410;DHT22;23275;48.914;12.566;2022-12-11T08:16:49;-0.60;99.90
37410;DHT22;23275;48.914;12.566;2022-12-11T08:19:15;-0.50;99.90
37410;DHT22;23275;48.914;12.566;2022-12-11T08:21:41;-0.40;99.90
37410;DHT22;23275;48.914;12.566;2022-12-11T08:24:07;-0.30;99.90
37410;DHT22;23275;48.914;12.566;2022-12-11T08:26:33;-0.20;99.90
37410;DHT22;23275;48.914;12.566;2022-12-11T08:29:00;-0.20;99.90
37410;DHT22;23275;48.914;12.566;2022-12-11T08:31:26;-0.10;99.90
37410;DHT22;23275;48.914;12.566;2022-12-11T08:33:53;-0.20;99.90
37410;DHT22;23275;48.914;12.566;2022-12-11T08:36:20;-0.10;99.90
37410;DHT22;23275;48.914;12.566;2022-12-11T08:38:46;-0.10;99.90
37410;DHT22;23275;48.914;12.566;2022-12-11T08:41:16;0.00;99.90
37410;DHT22;23275;48.914;12.566;2022-12-11T08:43:42;0.20;99.90
37410;DHT22;23275;48.914;12.566;2022-12-11T08:46:10;0.30;99.90
37410;DHT22;23275;48.914;12.566;2022-12-11T08:48:37;0.60;99.90
37410;DHT22;23275;48.914;12.566;2022-12-11T08:51:05;0.80;99.90
37410;DHT22;23275;48.914;12.566;2022-12-11T08:53:31;1.10;99.90
37410;DHT22;23275;48.914;12.566;2022-12-11T08:56:05;1.60;99.90
37410;DHT22;23275;48.914;12.566;2022-12-11T08:58:31;2.40;99.90
37410;DHT22;23275;48.914;12.566;2022-12-11T09:00:58;3.00;99.90
37410;DHT22;23275;48.914;12.566;2022-12-11T09:03:24;3.50;99.90
37410;DHT22;23275;48.914;12.566;2022-12-11T09:05:50;3.80;99.90
37410;DHT22;23275;48.914;12.566;2022-12-11T09:08:15;4.20;99.90
37410;DHT22;23275;48.914;12.566;2022-12-11T09:10:41;4.30;99.90
37410;DHT22;23275;48.914;12.566;2022-12-11T09:13:07;4.80;99.90
37410;DHT22;23275;48.914;12.566;2022-12-11T09:15:32;5.50;99.90
37410;DHT22;23275;48.914;12.566;2022-12-11T09:17:58;5.70;99.90
37410;DHT22;23275;48.914;12.566;2022-12-11T09:20:23;5.30;99.90
37410;DHT22;23275;48.914;12.566;2022-12-11T09:22:49;5.30;99.90
37410;DHT22;23275;48.914;12.566;2022-12-11T09:25:14;5.30;99.90
37410;DHT22;23275;48.914;12.566;2022-12-11T09:27:40;5.40;99.90
37410;DHT22;23275;48.914;12.566;2022-12-11T09:30:06;5.70;99.90
37410;DHT22;23275;48.914;12.566;2022-12-11T09:32:32;5.90;99.90
37410;DHT22;23275;48.914;12.566;2022-12-11T09:34:57;5.50;99.90
37410;DHT22;23275;48.914;12.566;2022-12-11T09:37:23;5.10;99.90
37410;DHT22;23275;48.914;12.566;2022-12-11T09:39:49;4.60;99.90
37410;DHT22;23275;48.914;12.566;2022-12-11T09:42:31;4.00;99.90
37410;DHT22;23275;48.914;12.566;2022-12-11T09:45:02;3.40;99.90
37410;DHT22;23275;48.914;12.566;2022-12-11T09:47:43;3.10;99.90
37410;DHT22;23275;48.914;12.566;2022-12-11T09:52:44;2.90;99.90
37410;DHT22;23275;48.914;12.566;2022-12-11T09:55:16;3.30;99.90
37410;DHT22;23275;48.914;12.566;2022-12-11T10:01:23;5.10;99.90
37410;DHT22;23275;48.914;12.566;2022-12-11T10:16:56;8.70;99.90
37410;DHT22;23275;48.914;12.566;2022-12-11T10:19:27;8.80;99.90
37410;DHT22;23275;48.914;12.566;2022-12-11T10:21:53;9.00;99.90
37410;DHT22;23275;48.914;12.566;2022-12-11T10:24:43;9.80;99.90
37410;DHT22;23275;48.914;12.566;2022-12-11T10:27:21;10.00;99.90
37410;DHT22;23275;48.914;12.566;2022-12-11T10:29:58;10.00;99.90
37410;DHT22;23275;48.914;12.566;2022-12-11T10:32:34;10.30;99.90
37410;DHT22;23275;48.914;12.566;2022-12-11T10:35:05;10.60;99.90
37410;DHT22;23275;48.914;12.566;2022-12-11T10:37:30;10.70;99.90
37410;DHT22;23275;48.914;12.566;2022-12-11T10:39:56;10.40;99.90
37410;DHT22;23275;48.914;12.566;2022-12-11T10:42:22;9.50;99.90
37410;DHT22;23275;48.914;12.566;2022-12-11T10:44:56;8.00;99.90
37410;DHT22;23275;48.914;12.566;2022-12-11T10:47:21;6.80;99.90
37410;DHT22;23275;48.914;12.566;2022-12-11T10:49:56;6.00;99.90
37410;DHT22;23275;48.914;12.566;2022-12-11T10:52:26;5.30;99.90
37410;DHT22;23275;48.914;12.566;2022-12-11T10:54:59;4.90;99.90
37410;DHT22;23275;48.914;12.566;2022-12-11T10:57:36;4.10;99.90
37410;DHT22;23275;48.914;12.566;2022-12-11T11:00:05;3.80;99.90
37410;DHT22;23275;48.914;12.566;2022-12-11T11:02:37;3.60;99.90
37410;DHT22;23275;48.914;12.566;2022-12-11T11:07:38;3.10;99.90
37410;DHT22;23275;48.914;12.566;2022-12-11T11:10:13;2.80;99.90
37410;DHT22;23275;48.914;12.566;2022-12-11T11:12:41;2.50;99.90
37410;DHT22;23275;48.914;12.566;2022-12-11T11:15:21;2.30;99.90
37410;DHT22;23275;48.914;12.566;2022-12-11T11:17:51;2.30;99.90
37410;DHT22;23275;48.914;12.566;2022-12-11T11:20:21;2.30;99.90
37410;DHT22;23275;48.914;12.566;2022-12-11T11:22:51;2.30;99.90
37410;DHT22;23275;48.914;12.566;2022-12-11T11:25:23;2.00;99.90
37410;DHT22;23275;48.914;12.566;2022-12-11T11:27:55;1.90;99.90
37410;DHT22;23275;48.914;12.566;2022-12-11T11:32:49;2.00;99.90
37410;DHT22;23275;48.914;12.566;2022-12-11T11:35:18;1.90;99.90
37410;DHT22;23275;48.914;12.566;2022-12-11T11:37:52;1.90;99.90
37410;DHT22;23275;48.914;12.566;2022-12-11T11:40:40;1.90;99.90
37410;DHT22;23275;48.914;12.566;2022-12-11T11:43:29;2.00;99.90
37410;DHT22;23275;48.914;12.566;2022-12-11T11:46:10;2.10;99.90
37410;DHT22;23275;48.914;12.566;2022-12-11T11:51:35;2.40;99.90
37410;DHT22;23275;48.914;12.566;2022-12-11T11:55:05;2.70;99.90
37410;DHT22;23275;48.914;12.566;2022-12-11T11:57:16;3.00;99.90
37410;DHT22;23275;48.914;12.566;2022-12-11T11:59:48;3.10;99.90
37410;DHT22;23275;48.914;12.566;2022-12-11T12:02:17;3.00;99.90
37410;DHT22;23275;48.914;12.566;2022-12-11T12:04:45;2.90;99.90
37410;DHT22;23275;48.914;12.566;2022-12-11T12:07:26;2.60;99.90
37410;DHT22;23275;48.914;12.566;2022-12-11T12:13:05;2.00;99.90
37410;DHT22;23275;48.914;12.566;2022-12-11T12:15:42;1.80;99.90
37410;DHT22;23275;48.914;12.566;2022-12-11T12:18:20;1.70;99.90
37410;DHT22;23275;48.914;12.566;2022-12-11T12:20:54;1.60;99.90
37410;DHT22;23275;48.914;12.566;2022-12-11T12:23:43;1.60;99.90
37410;DHT22;23275;48.914;12.566;2022-12-11T12:26:33;1.60;99.90
37410;DHT22;23275;48.914;12.566;2022-12-11T12:37:20;1.20;99.90
37410;DHT22;23275;48.914;12.566;2022-12-11T12:39:57;1.30;99.90
37410;DHT22;23275;48.914;12.566;2022-12-11T12:45:29;1.30;99.90
37410;DHT22;23275;48.914;12.566;2022-12-11T12:47:56;1.20;99.90
37410;DHT22;23275;48.914;12.566;2022-12-11T12:50:25;1.10;99.90
37410;DHT22;23275;48.914;12.566;2022-12-11T12:52:55;1.10;99.90
37410;DHT22;23275;48.914;12.566;2022-12-11T12:55:24;1.10;99.90
37410;DHT22;23275;48.914;12.566;2022-12-11T12:58:00;1.10;99.90
37410;DHT22;23275;48.914;12.566;2022-12-11T13:00:38;1.10;99.90
37410;DHT22;23275;48.914;12.566;2022-12-11T13:03:17;1.10;99.90
37410;DHT22;23275;48.914;12.566;2022-12-11T13:06:00;1.20;99.90
37410;DHT22;23275;48.914;12.566;2022-12-11T13:08:52;1.20;99.90
37410;DHT22;23275;48.914;12.566;2022-12-11T13:11:19;1.20;99.90
37410;DHT22;23275;48.914;12.566;2022-12-11T13:16:37;1.00;99.90
37410;DHT22;23275;48.914;12.566;2022-12-11T13:19:14;0.90;99.90
37410;DHT22;23275;48.914;12.566;2022-12-11T13:21:40;0.80;99.90
37410;DHT22;23275;48.914;12.566;2022-12-11T13:24:31;0.70;99.90
37410;DHT22;23275;48.914;12.566;2022-12-11T13:27:08;0.60;99.90
37410;DHT22;23275;48.914;12.566;2022-12-11T13:29:40;0.60;99.90
37410;DHT22;23275;48.914;12.566;2022-12-11T13:34:39;0.50;99.90
37410;DHT22;23275;48.914;12.566;2022-12-11T13:37:23;0.50;99.90
37410;DHT22;23275;48.914;12.566;2022-12-11T13:39:51;0.40;99.90
37410;DHT22;23275;48.914;12.566;2022-12-11T13:42:38;0.50;99.90
37410;DHT22;23275;48.914;12.566;2022-12-11T13:45:14;0.60;99.90
37410;DHT22;23275;48.914;12.566;2022-12-11T13:47:42;0.70;99.90
37410;DHT22;23275;48.914;12.566;2022-12-11T13:50:19;0.80;99.90
37410;DHT22;23275;48.914;12.566;2022-12-11T13:52:59;0.90;99.90
37410;DHT22;23275;48.914;12.566;2022-12-11T13:55:31;0.90;99.90
37410;DHT22;23275;48.914;12.566;2022-12-11T13:57:57;0.90;99.90
37410;DHT22;23275;48.914;12.566;2022-12-11T14:00:26;0.90;99.90
37410;DHT22;23275;48.914;12.566;2022-12-11T14:02:55;0.80;99.90
37410;DHT22;23275;48.914;12.566;2022-12-11T14:05:21;0.80;99.90
37410;DHT22;23275;48.914;12.566;2022-12-11T14:07:50;0.80;99.90
37410;DHT22;23275;48.914;12.566;2022-12-11T14:10:18;0.80;99.90
37410;DHT22;23275;48.914;12.566;2022-12-11T14:15:24;0.60;99.90
37410;DHT22;23275;48.914;12.566;2022-12-11T14:17:50;0.50;99.90
37410;DHT22;23275;48.914;12.566;2022-12-11T14:20:19;0.40;99.90
37410;DHT22;23275;48.914;12.566;2022-12-11T14:22:45;0.30;99.90
37410;DHT22;23275;48.914;12.566;2022-12-11T14:25:23;0.30;99.90
37410;DHT22;23275;48.914;12.566;2022-12-11T14:27:53;0.30;99.90
37410;DHT22;23275;48.914;12.566;2022-12-11T14:32:47;0.10;99.90
37410;DHT22;23275;48.914;12.566;2022-12-11T14:35:25;0.10;99.90
37410;DHT22;23275;48.914;12.566;2022-12-11T14:37:51;0.00;99.90
37410;DHT22;23275;48.914;12.566;2022-12-11T14:40:22;-0.10;99.90
37410;DHT22;23275;48.914;12.566;2022-12-11T14:42:53;-0.10;99.90
37410;DHT22;23275;48.914;12.566;2022-12-11T14:45:36;-0.10;99.90
37410;DHT22;23275;48.914;12.566;2022-12-11T14:48:09;-0.20;99.90
37410;DHT22;23275;48.914;12.566;2022-12-11T14:50:48;-0.30;99.90
37410;DHT22;23275;48.914;12.566;2022-12-11T14:53:18;-0.30;99.90
37410;DHT22;23275;48.914;12.566;2022-12-11T14:55:46;-0.30;99.90
37410;DHT22;23275;48.914;12.566;2022-12-11T14:58:19;-0.40;99.90
37410;DHT22;23275;48.914;12.566;2022-12-11T15:00:57;-0.40;99.90
37410;DHT22;23275;48.914;12.566;2022-12-11T15:03:23;-0.40;99.90
37410;DHT22;23275;48.914;12.566;2022-12-11T15:05:54;-0.40;99.90
37410;DHT22;23275;48.914;12.566;2022-12-11T15:08:21;-0.50;99.90
37410;DHT22;23275;48.914;12.566;2022-12-11T15:13:24;-0.50;99.90
37410;DHT22;23275;48.914;12.566;2022-12-11T15:15:52;-0.50;99.90
37410;DHT22;23275;48.914;12.566;2022-12-11T15:18:27;-0.60;99.90
37410;DHT22;23275;48.914;12.566;2022-12-11T15:20:59;-0.60;99.90
37410;DHT22;23275;48.914;12.566;2022-12-11T15:23:26;-0.60;99.90
37410;DHT22;23275;48.914;12.566;2022-12-11T15:25:54;-0.70;99.90
37410;DHT22;23275;48.914;12.566;2022-12-11T15:28:35;-0.70;99.90
37410;DHT22;23275;48.914;12.566;2022-12-11T15:31:05;-0.70;99.90
37410;DHT22;23275;48.914;12.566;2022-12-11T15:33:31;-0.70;99.90
37410;DHT22;23275;48.914;12.566;2022-12-11T15:36:18;-0.70;99.90
37410;DHT22;23275;48.914;12.566;2022-12-11T15:38:45;-0.80;99.90
37410;DHT22;23275;48.914;12.566;2022-12-11T15:41:17;-0.80;99.90
37410;DHT22;23275;48.914;12.566;2022-12-11T15:43:49;-0.80;99.90
37410;DHT22;23275;48.914;12.566;2022-12-11T15:46:15;-0.80;99.90
37410;DHT22;23275;48.914;12.566;2022-12-11T15:48:40;-0.80;99.90
37410;DHT22;23275;48.914;12.566;2022-12-11T15:51:06;-0.80;99.90
37410;DHT22;23275;48.914;12.566;2022-12-11T15:53:31;-0.80;99.90
37410;DHT22;23275;48.914;12.566;2022-12-11T15:55:58;-0.80;99.90
37410;DHT22;23275;48.914;12.566;2022-12-11T15:58:24;-0.80;99.90
37410;DHT22;23275;48.914;12.566;2022-12-11T16:00:51;-0.80;99.90
37410;DHT22;23275;48.914;12.566;2022-12-11T16:03:19;-0.80;99.90
37410;DHT22;23275;48.914;12.566;2022-12-11T16:05:45;-0.80;99.90
37410;DHT22;23275;48.914;12.566;2022-12-11T16:08:16;-0.90;99.90
37410;DHT22;23275;48.914;12.566;2022-12-11T16:10:42;-0.90;99.90
37410;DHT22;23275;48.914;12.566;2022-12-11T16:13:09;-0.90;99.90
37410;DHT22;23275;48.914;12.566;2022-12-11T16:15:36;-1.00;99.90
37410;DHT22;23275;48.914;12.566;2022-12-11T16:18:05;-1.10;99.90
37410;DHT22;23275;48.914;12.566;2022-12-11T16:20:33;-1.20;99.90
37410;DHT22;23275;48.914;12.566;2022-12-11T16:22:59;-1.20;99.90
37410;DHT22;23275;48.914;12.566;2022-12-11T16:25:26;-1.20;99.90
37410;DHT22;23275;48.914;12.566;2022-12-11T16:27:55;-1.30;99.90
37410;DHT22;23275;48.914;12.566;2022-12-11T16:30:21;-1.30;99.90
37410;DHT22;23275;48.914;12.566;2022-12-11T16:32:46;-1.40;99.90
37410;DHT22;23275;48.914;12.566;2022-12-11T16:35:12;-1.50;99.90
37410;DHT22;23275;48.914;12.566;2022-12-11T16:37:37;-1.50;99.90
37410;DHT22;23275;48.914;12.566;2022-12-11T16:40:04;-1.50;99.90
37410;DHT22;23275;48.914;12.566;2022-12-11T16:42:31;-1.50;99.90
37410;DHT22;23275;48.914;12.566;2022-12-11T16:45:03;-1.50;99.90
37410;DHT22;23275;48.914;12.566;2022-12-11T16:47:29;-1.50;99.90
37410;DHT22;23275;48.914;12.566;2022-12-11T16:49:57;-1.50;99.90
37410;DHT22;23275;48.914;12.566;2022-12-11T16:52:23;-1.60;99.90
37410;DHT22;23275;48.914;12.566;2022-12-11T16:54:48;-1.50;99.90